sensor_id;sensor_type;location;lat;lon;timestamp;P1;durP1;ratioP1;P2;durP2;ratioP2
28802;SDS011;15949;55.656;37.422;2022-07-23T00:04:06;10.68;;;6.43;;
28802;SDS011;15949;55.656;37.422;2022-07-23T00:09:12;10.95;;;6.97;;
28802;SDS011;15949;55.656;37.422;2022-07-23T00:14:17;10.80;;;6.57;;
28802;SDS011;15949;55.656;37.422;2022-07-23T00:19:23;8.90;;;6.60;;
28802;SDS011;15949;55.656;37.422;2022-07-23T00:24:28;10.40;;;6.90;;
28802;SDS011;15949;55.656;37.422;2022-07-23T00:29:34;8.50;;;6.72;;
28802;SDS011;15949;55.656;37.422;2022-07-23T00:34:40;11.20;;;7.35;;
28802;SDS011;15949;55.656;37.422;2022-07-23T00:39:45;11.40;;;6.22;;
28802;SDS011;15949;55.656;37.422;2022-07-23T00:44:51;9.30;;;6.90;;
28802;SDS011;15949;55.656;37.422;2022-07-23T00:49:56;11.57;;;7.15;;
28802;SDS011;15949;55.656;37.422;2022-07-23T00:55:06;9.13;;;7.07;;
28802;SDS011;15949;55.656;37.422;2022-07-23T01:00:13;10.68;;;6.93;;
28802;SDS011;15949;55.656;37.422;2022-07-23T01:05:20;13.93;;;7.30;;
28802;SDS011;15949;55.656;37.422;2022-07-23T01:10:27;9.13;;;6.97;;
28802;SDS011;15949;55.656;37.422;2022-07-23T01:15:39;14.05;;;7.88;;
28802;SDS011;15949;55.656;37.422;2022-07-23T01:20:44;14.18;;;7.75;;
28802;SDS011;15949;55.656;37.422;2022-07-23T01:25:53;13.63;;;8.40;;
28802;SDS011;15949;55.656;37.422;2022-07-23T01:31:00;15.25;;;7.43;;
28802;SDS011;15949;55.656;37.422;2022-07-23T01:36:06;12.38;;;7.47;;
28802;SDS011;15949;55.656;37.422;2022-07-23T01:41:12;12.60;;;7.65;;
28802;SDS011;15949;55.656;37.422;2022-07-23T01:46:17;10.70;;;6.72;;
28802;SDS011;15949;55.656;37.422;2022-07-23T01:51:23;14.20;;;7.70;;
28802;SDS011;15949;55.656;37.422;2022-07-23T01:56:28;10.98;;;7.30;;
28802;SDS011;15949;55.656;37.422;2022-07-23T02:01:34;12.27;;;7.25;;
28802;SDS011;15949;55.656;37.422;2022-07-23T02:06:40;11.57;;;7.00;;
28802;SDS011;15949;55.656;37.422;2022-07-23T02:11:45;11.73;;;7.40;;
28802;SDS011;15949;55.656;37.422;2022-07-23T02:16:51;9.70;;;7.53;;
28802;SDS011;15949;55.656;37.422;2022-07-23T02:21:56;10.02;;;7.70;;
28802;SDS011;15949;55.656;37.422;2022-07-23T02:27:02;12.02;;;7.13;;
28802;SDS011;15949;55.656;37.422;2022-07-23T02:32:08;9.70;;;7.60;;
28802;SDS011;15949;55.656;37.422;2022-07-23T02:37:13;12.40;;;7.22;;
28802;SDS011;15949;55.656;37.422;2022-07-23T02:42:19;12.48;;;7.70;;
28802;SDS011;15949;55.656;37.422;2022-07-23T02:47:25;10.98;;;6.93;;
28802;SDS011;15949;55.656;37.422;2022-07-23T02:52:31;9.73;;;7.18;;
28802;SDS011;15949;55.656;37.422;2022-07-23T02:57:36;10.70;;;7.05;;
28802;SDS011;15949;55.656;37.422;2022-07-23T03:02:42;11.95;;;7.25;;
28802;SDS011;15949;55.656;37.422;2022-07-23T03:07:48;11.30;;;7.43;;
28802;SDS011;15949;55.656;37.422;2022-07-23T03:12:53;9.48;;;6.90;;
28802;SDS011;15949;55.656;37.422;2022-07-23T03:17:59;11.95;;;7.65;;
28802;SDS011;15949;55.656;37.422;2022-07-23T03:23:04;11.88;;;7.15;;
28802;SDS011;15949;55.656;37.422;2022-07-23T03:28:10;9.93;;;6.88;;
28802;SDS011;15949;55.656;37.422;2022-07-23T03:33:17;8.82;;;6.20;;
28802;SDS011;15949;55.656;37.422;2022-07-23T03:38:23;9.95;;;5.85;;
28802;SDS011;15949;55.656;37.422;2022-07-23T03:43:29;9.88;;;5.70;;
28802;SDS011;15949;55.656;37.422;2022-07-23T03:48:35;9.05;;;5.90;;
28802;SDS011;15949;55.656;37.422;2022-07-23T03:53:41;8.45;;;5.63;;
28802;SDS011;15949;55.656;37.422;2022-07-23T03:58:46;10.15;;;5.47;;
28802;SDS011;15949;55.656;37.422;2022-07-23T04:03:52;11.38;;;5.20;;
28802;SDS011;15949;55.656;37.422;2022-07-23T04:08:57;11.27;;;5.60;;
28802;SDS011;15949;55.656;37.422;2022-07-23T04:14:03;14.00;;;5.57;;
28802;SDS011;15949;55.656;37.422;2022-07-23T04:19:09;8.73;;;5.53;;
28802;SDS011;15949;55.656;37.422;2022-07-23T04:24:14;9.98;;;6.22;;
28802;SDS011;15949;55.656;37.422;2022-07-23T04:29:20;12.15;;;6.25;;
28802;SDS011;15949;55.656;37.422;2022-07-23T04:34:25;10.27;;;6.00;;
28802;SDS011;15949;55.656;37.422;2022-07-23T04:39:31;10.57;;;5.63;;
28802;SDS011;15949;55.656;37.422;2022-07-23T04:44:37;11.05;;;6.25;;
28802;SDS011;15949;55.656;37.422;2022-07-23T04:49:42;12.45;;;6.07;;
28802;SDS011;15949;55.656;37.422;2022-07-23T04:54:48;13.52;;;6.50;;
28802;SDS011;15949;55.656;37.422;2022-07-23T04:59:54;15.93;;;6.15;;
28802;SDS011;15949;55.656;37.422;2022-07-23T05:04:59;12.77;;;6.15;;
28802;SDS011;15949;55.656;37.422;2022-07-23T05:10:05;17.10;;;8.02;;
28802;SDS011;15949;55.656;37.422;2022-07-23T05:15:11;18.85;;;7.22;;
28802;SDS011;15949;55.656;37.422;2022-07-23T05:20:16;18.77;;;7.22;;
28802;SDS011;15949;55.656;37.422;2022-07-23T05:25:22;14.55;;;6.93;;
28802;SDS011;15949;55.656;37.422;2022-07-23T05:30:27;23.17;;;7.03;;
28802;SDS011;15949;55.656;37.422;2022-07-23T05:35:33;14.90;;;6.30;;
28802;SDS011;15949;55.656;37.422;2022-07-23T05:40:39;13.07;;;5.85;;
28802;SDS011;15949;55.656;37.422;2022-07-23T05:45:44;15.07;;;6.18;;
28802;SDS011;15949;55.656;37.422;2022-07-23T05:50:50;13.95;;;5.78;;
28802;SDS011;15949;55.656;37.422;2022-07-23T05:55:56;9.75;;;5.47;;
28802;SDS011;15949;55.656;37.422;2022-07-23T06:01:01;16.95;;;6.50;;
28802;SDS011;15949;55.656;37.422;2022-07-23T06:06:07;11.88;;;6.20;;
28802;SDS011;15949;55.656;37.422;2022-07-23T06:11:12;13.30;;;6.13;;
28802;SDS011;15949;55.656;37.422;2022-07-23T06:16:18;8.48;;;5.53;;
28802;SDS011;15949;55.656;37.422;2022-07-23T06:21:24;15.15;;;5.88;;
28802;SDS011;15949;55.656;37.422;2022-07-23T06:26:29;18.88;;;5.80;;
28802;SDS011;15949;55.656;37.422;2022-07-23T06:31:35;13.45;;;6.07;;
28802;SDS011;15949;55.656;37.422;2022-07-23T06:36:40;9.98;;;5.70;;
28802;SDS011;15949;55.656;37.422;2022-07-23T06:41:46;11.05;;;6.00;;
28802;SDS011;15949;55.656;37.422;2022-07-23T06:46:51;12.50;;;5.90;;
28802;SDS011;15949;55.656;37.422;2022-07-23T06:51:57;14.70;;;6.25;;
28802;SDS011;15949;55.656;37.422;2022-07-23T06:57:02;13.30;;;5.63;;
28802;SDS011;15949;55.656;37.422;2022-07-23T07:02:08;14.27;;;6.00;;
28802;SDS011;15949;55.656;37.422;2022-07-23T07:07:14;14.43;;;6.03;;
28802;SDS011;15949;55.656;37.422;2022-07-23T07:12:20;20.92;;;6.57;;
28802;SDS011;15949;55.656;37.422;2022-07-23T07:17:25;12.75;;;5.45;;
28802;SDS011;15949;55.656;37.422;2022-07-23T07:22:31;15.20;;;5.45;;
28802;SDS011;15949;55.656;37.422;2022-07-23T07:27:36;10.20;;;5.40;;
28802;SDS011;15949;55.656;37.422;2022-07-23T07:32:42;9.88;;;5.00;;
28802;SDS011;15949;55.656;37.422;2022-07-23T07:37:48;9.43;;;4.78;;
28802;SDS011;15949;55.656;37.422;2022-07-23T07:42:54;9.63;;;4.93;;
28802;SDS011;15949;55.656;37.422;2022-07-23T07:48:01;7.38;;;4.60;;
28802;SDS011;15949;55.656;37.422;2022-07-23T07:53:07;8.40;;;4.68;;
28802;SDS011;15949;55.656;37.422;2022-07-23T07:58:14;9.68;;;4.70;;
28802;SDS011;15949;55.656;37.422;2022-07-23T08:03:19;9.38;;;4.70;;
28802;SDS011;15949;55.656;37.422;2022-07-23T08:08:25;9.48;;;4.93;;
28802;SDS011;15949;55.656;37.422;2022-07-23T08:13:30;8.93;;;5.15;;
28802;SDS011;15949;55.656;37.422;2022-07-23T08:18:36;10.73;;;5.53;;
28802;SDS011;15949;55.656;37.422;2022-07-23T08:23:42;10.27;;;4.80;;
28802;SDS011;15949;55.656;37.422;2022-07-23T08:28:47;10.48;;;4.50;;
28802;SDS011;15949;55.656;37.422;2022-07-23T08:33:53;11.43;;;5.10;;
28802;SDS011;15949;55.656;37.422;2022-07-23T08:39:00;8.80;;;4.82;;
28802;SDS011;15949;55.656;37.422;2022-07-23T08:44:08;7.90;;;5.35;;
28802;SDS011;15949;55.656;37.422;2022-07-23T08:49:14;7.40;;;6.00;;
28802;SDS011;15949;55.656;37.422;2022-07-23T08:54:20;7.90;;;5.75;;
28802;SDS011;15949;55.656;37.422;2022-07-23T08:59:27;11.38;;;6.05;;
28802;SDS011;15949;55.656;37.422;2022-07-23T09:04:34;10.93;;;5.70;;
28802;SDS011;15949;55.656;37.422;2022-07-23T09:09:40;10.52;;;6.25;;
28802;SDS011;15949;55.656;37.422;2022-07-23T09:14:46;9.20;;;6.40;;
28802;SDS011;15949;55.656;37.422;2022-07-23T09:19:54;8.52;;;5.60;;
28802;SDS011;15949;55.656;37.422;2022-07-23T09:25:21;6.82;;;5.63;;
28802;SDS011;15949;55.656;37.422;2022-07-23T09:30:27;8.02;;;5.82;;
28802;SDS011;15949;55.656;37.422;2022-07-23T09:35:45;10.93;;;5.30;;
28802;SDS011;15949;55.656;37.422;2022-07-23T09:41:10;11.05;;;5.65;;
28802;SDS011;15949;55.656;37.422;2022-07-23T09:51:29;7.85;;;5.70;;
28802;SDS011;15949;55.656;37.422;2022-07-23T09:56:41;8.10;;;6.05;;
28802;SDS011;15949;55.656;37.422;2022-07-23T10:01:48;7.95;;;5.95;;
28802;SDS011;15949;55.656;37.422;2022-07-23T10:07:04;8.35;;;5.90;;
28802;SDS011;15949;55.656;37.422;2022-07-23T10:12:13;9.77;;;5.72;;
28802;SDS011;15949;55.656;37.422;2022-07-23T10:17:38;8.65;;;5.90;;
28802;SDS011;15949;55.656;37.422;2022-07-23T10:22:48;10.13;;;5.70;;
28802;SDS011;15949;55.656;37.422;2022-07-23T10:28:30;8.18;;;5.57;;
28802;SDS011;15949;55.656;37.422;2022-07-23T10:39:18;12.20;;;6.07;;
28802;SDS011;15949;55.656;37.422;2022-07-23T10:44:37;9.60;;;6.18;;
28802;SDS011;15949;55.656;37.422;2022-07-23T10:49:51;8.77;;;6.60;;
28802;SDS011;15949;55.656;37.422;2022-07-23T10:55:40;9.02;;;6.60;;
28802;SDS011;15949;55.656;37.422;2022-07-23T11:00:22;9.00;;;6.20;;
28802;SDS011;15949;55.656;37.422;2022-07-23T11:05:40;9.70;;;6.10;;
28802;SDS011;15949;55.656;37.422;2022-07-23T11:10:51;8.05;;;6.22;;
28802;SDS011;15949;55.656;37.422;2022-07-23T11:31:58;6.68;;;5.90;;
28802;SDS011;15949;55.656;37.422;2022-07-23T11:37:10;6.60;;;5.45;;
28802;SDS011;15949;55.656;37.422;2022-07-23T11:42:17;9.18;;;5.90;;
28802;SDS011;15949;55.656;37.422;2022-07-23T11:47:24;8.75;;;5.60;;
28802;SDS011;15949;55.656;37.422;2022-07-23T11:52:31;7.33;;;5.37;;
28802;SDS011;15949;55.656;37.422;2022-07-23T11:57:38;9.10;;;5.65;;
28802;SDS011;15949;55.656;37.422;2022-07-23T12:02:46;7.38;;;5.22;;
28802;SDS011;15949;55.656;37.422;2022-07-23T12:07:55;8.65;;;5.65;;
28802;SDS011;15949;55.656;37.422;2022-07-23T12:13:12;7.93;;;5.73;;
28802;SDS011;15949;55.656;37.422;2022-07-23T12:18:23;9.32;;;5.80;;
28802;SDS011;15949;55.656;37.422;2022-07-23T12:23:30;8.43;;;5.60;;
28802;SDS011;15949;55.656;37.422;2022-07-23T12:28:36;7.35;;;5.65;;
28802;SDS011;15949;55.656;37.422;2022-07-23T12:33:42;6.15;;;5.47;;
28802;SDS011;15949;55.656;37.422;2022-07-23T12:38:48;9.40;;;5.68;;
28802;SDS011;15949;55.656;37.422;2022-07-23T12:43:55;7.75;;;5.32;;
28802;SDS011;15949;55.656;37.422;2022-07-23T12:49:00;5.95;;;5.32;;
28802;SDS011;15949;55.656;37.422;2022-07-23T12:54:07;9.48;;;5.50;;
28802;SDS011;15949;55.656;37.422;2022-07-23T12:59:14;8.40;;;5.28;;
28802;SDS011;15949;55.656;37.422;2022-07-23T13:04:22;6.88;;;5.30;;
28802;SDS011;15949;55.656;37.422;2022-07-23T13:09:29;7.55;;;5.43;;
28802;SDS011;15949;55.656;37.422;2022-07-23T13:14:37;6.78;;;5.50;;
28802;SDS011;15949;55.656;37.422;2022-07-23T13:19:42;6.78;;;5.47;;
28802;SDS011;15949;55.656;37.422;2022-07-23T13:24:48;8.43;;;5.63;;
28802;SDS011;15949;55.656;37.422;2022-07-23T13:29:53;6.40;;;5.20;;
28802;SDS011;15949;55.656;37.422;2022-07-23T13:34:59;6.93;;;5.13;;
28802;SDS011;15949;55.656;37.422;2022-07-23T13:40:05;7.97;;;5.10;;
28802;SDS011;15949;55.656;37.422;2022-07-23T13:45:11;5.85;;;5.28;;
28802;SDS011;15949;55.656;37.422;2022-07-23T13:50:17;14.60;;;4.97;;
28802;SDS011;15949;55.656;37.422;2022-07-23T13:55:23;8.73;;;5.28;;
28802;SDS011;15949;55.656;37.422;2022-07-23T14:00:29;8.75;;;5.68;;
28802;SDS011;15949;55.656;37.422;2022-07-23T14:05:36;11.27;;;5.70;;
28802;SDS011;15949;55.656;37.422;2022-07-23T14:10:41;8.77;;;5.57;;
28802;SDS011;15949;55.656;37.422;2022-07-23T14:15:47;7.85;;;5.88;;
28802;SDS011;15949;55.656;37.422;2022-07-23T14:20:54;9.50;;;5.20;;
28802;SDS011;15949;55.656;37.422;2022-07-23T14:26:00;9.23;;;5.38;;
28802;SDS011;15949;55.656;37.422;2022-07-23T14:31:05;6.47;;;4.95;;
28802;SDS011;15949;55.656;37.422;2022-07-23T14:36:11;10.73;;;5.55;;
28802;SDS011;15949;55.656;37.422;2022-07-23T14:41:17;7.40;;;5.53;;
28802;SDS011;15949;55.656;37.422;2022-07-23T14:46:22;9.02;;;5.07;;
28802;SDS011;15949;55.656;37.422;2022-07-23T14:51:28;7.38;;;4.70;;
28802;SDS011;15949;55.656;37.422;2022-07-23T14:56:34;9.13;;;4.95;;
28802;SDS011;15949;55.656;37.422;2022-07-23T15:01:41;6.83;;;4.97;;
28802;SDS011;15949;55.656;37.422;2022-07-23T17:10:04;11.00;;;7.93;;
28802;SDS011;15949;55.656;37.422;2022-07-23T17:15:11;14.90;;;9.75;;
28802;SDS011;15949;55.656;37.422;2022-07-23T17:20:17;17.10;;;9.68;;
28802;SDS011;15949;55.656;37.422;2022-07-23T17:25:22;16.77;;;9.60;;
28802;SDS011;15949;55.656;37.422;2022-07-23T17:30:28;17.48;;;13.60;;
28802;SDS011;15949;55.656;37.422;2022-07-23T17:35:34;16.63;;;13.27;;
28802;SDS011;15949;55.656;37.422;2022-07-23T17:40:40;14.98;;;10.65;;
28802;SDS011;15949;55.656;37.422;2022-07-23T17:45:46;15.20;;;10.52;;
28802;SDS011;15949;55.656;37.422;2022-07-23T17:50:52;10.52;;;8.52;;
28802;SDS011;15949;55.656;37.422;2022-07-23T17:55:58;11.20;;;7.88;;
28802;SDS011;15949;55.656;37.422;2022-07-23T18:01:04;14.68;;;10.35;;
28802;SDS011;15949;55.656;37.422;2022-07-23T18:06:10;12.82;;;7.40;;
28802;SDS011;15949;55.656;37.422;2022-07-23T18:11:16;10.10;;;7.70;;
28802;SDS011;15949;55.656;37.422;2022-07-23T18:16:21;12.15;;;9.38;;
28802;SDS011;15949;55.656;37.422;2022-07-23T18:21:27;12.35;;;7.75;;
28802;SDS011;15949;55.656;37.422;2022-07-23T18:26:32;15.43;;;10.50;;
28802;SDS011;15949;55.656;37.422;2022-07-23T18:31:38;17.30;;;11.60;;
28802;SDS011;15949;55.656;37.422;2022-07-23T18:36:44;10.43;;;8.50;;
28802;SDS011;15949;55.656;37.422;2022-07-23T18:41:49;10.10;;;7.45;;
28802;SDS011;15949;55.656;37.422;2022-07-23T18:46:55;10.43;;;7.93;;
28802;SDS011;15949;55.656;37.422;2022-07-23T18:52:00;12.02;;;10.00;;
28802;SDS011;15949;55.656;37.422;2022-07-23T18:57:06;16.13;;;13.35;;
28802;SDS011;15949;55.656;37.422;2022-07-23T19:02:12;10.57;;;7.90;;
28802;SDS011;15949;55.656;37.422;2022-07-23T19:07:19;10.05;;;6.90;;
28802;SDS011;15949;55.656;37.422;2022-07-23T19:12:25;10.40;;;6.65;;
28802;SDS011;15949;55.656;37.422;2022-07-23T19:17:30;10.68;;;6.65;;
28802;SDS011;15949;55.656;37.422;2022-07-23T19:22:36;10.85;;;6.70;;
28802;SDS011;15949;55.656;37.422;2022-07-23T19:27:42;11.38;;;6.90;;
28802;SDS011;15949;55.656;37.422;2022-07-23T19:32:48;12.77;;;7.15;;
28802;SDS011;15949;55.656;37.422;2022-07-23T19:37:54;12.93;;;7.43;;
28802;SDS011;15949;55.656;37.422;2022-07-23T19:43:00;11.88;;;8.68;;
28802;SDS011;15949;55.656;37.422;2022-07-23T19:48:05;11.40;;;8.23;;
28802;SDS011;15949;55.656;37.422;2022-07-23T19:53:11;13.30;;;8.25;;
28802;SDS011;15949;55.656;37.422;2022-07-23T19:58:17;11.30;;;7.72;;
28802;SDS011;15949;55.656;37.422;2022-07-23T20:03:22;10.10;;;7.60;;
28802;SDS011;15949;55.656;37.422;2022-07-23T20:08:28;15.13;;;7.75;;
28802;SDS011;15949;55.656;37.422;2022-07-23T20:13:35;11.73;;;7.40;;
28802;SDS011;15949;55.656;37.422;2022-07-23T20:18:40;10.57;;;7.18;;
28802;SDS011;15949;55.656;37.422;2022-07-23T20:23:46;18.55;;;8.63;;
28802;SDS011;15949;55.656;37.422;2022-07-23T20:28:52;11.50;;;8.30;;
28802;SDS011;15949;55.656;37.422;2022-07-23T20:33:58;20.38;;;8.70;;
28802;SDS011;15949;55.656;37.422;2022-07-23T20:39:04;15.45;;;8.88;;
28802;SDS011;15949;55.656;37.422;2022-07-23T20:44:11;17.67;;;9.63;;
28802;SDS011;15949;55.656;37.422;2022-07-23T20:49:17;18.75;;;11.45;;
28802;SDS011;15949;55.656;37.422;2022-07-23T20:54:23;17.05;;;9.18;;
28802;SDS011;15949;55.656;37.422;2022-07-23T20:59:28;16.77;;;9.98;;
28802;SDS011;15949;55.656;37.422;2022-07-23T21:04:34;16.77;;;9.57;;
28802;SDS011;15949;55.656;37.422;2022-07-23T21:09:40;15.65;;;9.02;;
28802;SDS011;15949;55.656;37.422;2022-07-23T21:14:45;14.38;;;10.15;;
28802;SDS011;15949;55.656;37.422;2022-07-23T21:19:51;21.67;;;10.38;;
28802;SDS011;15949;55.656;37.422;2022-07-23T21:24:56;21.30;;;10.10;;
28802;SDS011;15949;55.656;37.422;2022-07-23T21:30:02;22.38;;;10.27;;
28802;SDS011;15949;55.656;37.422;2022-07-23T21:35:08;19.80;;;10.40;;
28802;SDS011;15949;55.656;37.422;2022-07-23T21:40:14;15.30;;;10.35;;
28802;SDS011;15949;55.656;37.422;2022-07-23T21:45:20;20.02;;;10.30;;
28802;SDS011;15949;55.656;37.422;2022-07-23T21:50:26;16.30;;;9.88;;
28802;SDS011;15949;55.656;37.422;2022-07-23T21:55:31;19.67;;;9.98;;
28802;SDS011;15949;55.656;37.422;2022-07-23T22:00:37;23.90;;;10.32;;
28802;SDS011;15949;55.656;37.422;2022-07-23T22:05:43;17.70;;;10.10;;
28802;SDS011;15949;55.656;37.422;2022-07-23T22:10:49;19.55;;;10.85;;
28802;SDS011;15949;55.656;37.422;2022-07-23T22:15:54;17.13;;;10.70;;
28802;SDS011;15949;55.656;37.422;2022-07-23T22:21:00;16.00;;;10.15;;
28802;SDS011;15949;55.656;37.422;2022-07-23T22:26:06;16.73;;;10.18;;
28802;SDS011;15949;55.656;37.422;2022-07-23T22:31:11;21.20;;;11.30;;
28802;SDS011;15949;55.656;37.422;2022-07-23T22:36:17;17.50;;;11.10;;
28802;SDS011;15949;55.656;37.422;2022-07-23T22:41:23;24.42;;;11.20;;
28802;SDS011;15949;55.656;37.422;2022-07-23T22:46:29;17.80;;;11.55;;
28802;SDS011;15949;55.656;37.422;2022-07-23T22:51:34;16.17;;;11.48;;
28802;SDS011;15949;55.656;37.422;2022-07-23T22:56:40;15.82;;;10.98;;
28802;SDS011;15949;55.656;37.422;2022-07-23T23:01:46;17.20;;;11.65;;
28802;SDS011;15949;55.656;37.422;2022-07-23T23:06:51;18.65;;;11.90;;
28802;SDS011;15949;55.656;37.422;2022-07-23T23:11:57;22.52;;;12.70;;
28802;SDS011;15949;55.656;37.422;2022-07-23T23:17:02;24.13;;;11.45;;
28802;SDS011;15949;55.656;37.422;2022-07-23T23:22:08;20.85;;;11.40;;
28802;SDS011;15949;55.656;37.422;2022-07-23T23:27:14;24.23;;;11.93;;
28802;SDS011;15949;55.656;37.422;2022-07-23T23:32:20;17.52;;;11.95;;
28802;SDS011;15949;55.656;37.422;2022-07-23T23:37:25;21.98;;;11.80;;
28802;SDS011;15949;55.656;37.422;2022-07-23T23:42:31;27.20;;;13.10;;
28802;SDS011;15949;55.656;37.422;2022-07-23T23:47:37;19.10;;;12.05;;
28802;SDS011;15949;55.656;37.422;2022-07-23T23:52:42;25.73;;;12.82;;
28802;SDS011;15949;55.656;37.422;2022-07-23T23:57:48;24.90;;;13.63;;
